createdAt,value
2023-01-18T00:01:05.221Z,9.40
2023-01-18T00:03:35.261Z,10.27
2023-01-18T00:06:03.149Z,10.82
2023-01-18T00:08:31.804Z,12.32
2023-01-18T00:11:09.786Z,11.65
2023-01-18T00:13:36.876Z,11.95
2023-01-18T00:16:18.482Z,8.93
2023-01-18T00:18:51.420Z,7.32
2023-01-18T00:21:18.270Z,8.38
2023-01-18T00:23:45.248Z,7.65
2023-01-18T00:26:15.057Z,7.13
2023-01-18T00:28:42.738Z,6.00
2023-01-18T00:31:20.603Z,8.68
2023-01-18T00:33:49.203Z,9.85
2023-01-18T00:36:16.964Z,9.68
2023-01-18T00:38:44.041Z,8.25
2023-01-18T00:41:10.863Z,7.90
2023-01-18T00:43:40.457Z,7.00
2023-01-18T00:46:16.124Z,7.57
2023-01-18T00:48:44.217Z,6.90
2023-01-18T00:51:17.727Z,7.32
2023-01-18T00:53:45.071Z,7.60
2023-01-18T00:56:15.585Z,7.50
2023-01-18T00:58:42.432Z,7.50
2023-01-18T01:01:10.124Z,7.15
2023-01-18T01:03:59.706Z,9.02
2023-01-18T01:06:44.500Z,7.60
2023-01-18T01:09:12.295Z,7.50
2023-01-18T01:11:39.066Z,8.02
2023-01-18T01:14:24.292Z,9.30
2023-01-18T01:17:09.651Z,8.40
2023-01-18T01:19:54.715Z,8.50
2023-01-18T01:22:40.239Z,7.28
2023-01-18T01:25:25.477Z,7.75
2023-01-18T01:27:52.516Z,8.52
2023-01-18T01:30:19.261Z,7.68
2023-01-18T01:32:45.963Z,7.78
2023-01-18T01:35:12.736Z,8.20
2023-01-18T01:37:39.463Z,7.90
2023-01-18T01:40:06.675Z,7.35
2023-01-18T01:42:33.414Z,7.88
2023-01-18T01:45:00.156Z,7.63
2023-01-18T01:47:33.102Z,7.50
2023-01-18T01:50:25.912Z,7.80
2023-01-18T01:52:52.846Z,8.48
2023-01-18T01:55:24.832Z,8.48
2023-01-18T01:58:12.836Z,8.02
2023-01-18T02:00:39.643Z,7.60
2023-01-18T02:03:09.347Z,8.52
2023-01-18T02:05:48.559Z,7.82
2023-01-18T02:08:22.309Z,8.98
2023-01-18T02:10:50.055Z,8.73
2023-01-18T02:13:17.017Z,9.05
2023-01-18T02:16:05.635Z,9.27
2023-01-18T02:18:49.927Z,8.05
2023-01-18T02:21:18.796Z,7.88
2023-01-18T02:24:26.380Z,7.85
2023-01-18T02:27:04.273Z,7.75
2023-01-18T02:29:38.946Z,8.70
2023-01-18T02:32:44.542Z,9.20
2023-01-18T02:35:14.978Z,8.93
2023-01-18T02:37:59.625Z,8.50
2023-01-18T02:40:34.148Z,8.85
2023-01-18T02:43:21.103Z,8.00
2023-01-18T02:46:08.262Z,9.45
2023-01-18T02:48:40.313Z,8.15
2023-01-18T02:51:07.561Z,8.50
2023-01-18T02:53:40.316Z,8.20
2023-01-18T02:56:14.309Z,8.43
2023-01-18T02:58:46.037Z,8.80
2023-01-18T03:01:15.434Z,9.05
2023-01-18T03:03:44.350Z,7.38
2023-01-18T03:06:11.094Z,8.27
2023-01-18T03:08:41.898Z,8.93
2023-01-18T03:11:19.000Z,8.93
2023-01-18T03:14:27.525Z,8.02
2023-01-18T03:17:19.284Z,8.63
2023-01-18T03:20:07.148Z,7.75
2023-01-18T03:22:55.292Z,8.85
2023-01-18T03:25:34.363Z,8.00
2023-01-18T03:28:33.522Z,7.70
2023-01-18T03:31:20.927Z,7.80
2023-01-18T03:33:58.321Z,8.48
2023-01-18T03:36:32.148Z,7.10
2023-01-18T03:39:11.722Z,7.50
2023-01-18T03:41:45.207Z,8.50
2023-01-18T03:44:18.572Z,7.68
2023-01-18T03:46:45.388Z,7.90
2023-01-18T03:49:12.664Z,7.35
2023-01-18T03:52:07.613Z,8.35
2023-01-18T03:54:56.595Z,8.50
2023-01-18T03:57:39.008Z,7.30
2023-01-18T04:00:08.351Z,7.30
2023-01-18T04:02:39.343Z,8.10
2023-01-18T04:05:06.937Z,7.75
2023-01-18T04:07:33.763Z,8.13
2023-01-18T04:10:00.718Z,8.20
2023-01-18T04:12:27.814Z,8.65
2023-01-18T04:14:57.162Z,8.95
2023-01-18T04:17:23.906Z,9.82
2023-01-18T04:19:50.664Z,10.88
2023-01-18T04:22:17.424Z,11.65
2023-01-18T04:24:44.337Z,11.32
2023-01-18T04:27:11.770Z,13.27
2023-01-18T04:29:38.636Z,12.88
2023-01-18T04:32:05.801Z,14.35
2023-01-18T04:34:33.187Z,15.35
2023-01-18T04:36:59.926Z,12.88
2023-01-18T04:39:26.705Z,10.20
2023-01-18T04:41:53.985Z,8.82
2023-01-18T04:44:21.513Z,9.00
2023-01-18T04:46:49.044Z,12.40
2023-01-18T04:49:17.376Z,10.02
2023-01-18T04:51:45.552Z,9.80
2023-01-18T04:54:14.378Z,8.27
2023-01-18T04:56:41.132Z,10.20
2023-01-18T04:59:08.032Z,10.68
2023-01-18T05:01:35.684Z,8.65
2023-01-18T05:04:03.343Z,8.90
2023-01-18T05:06:30.155Z,7.47
2023-01-18T05:08:56.885Z,6.75
2023-01-18T05:11:23.697Z,7.55
2023-01-18T05:13:50.729Z,7.03
2023-01-18T05:16:22.601Z,7.32
2023-01-18T05:18:49.983Z,6.97
2023-01-18T05:21:17.139Z,7.78
2023-01-18T05:23:43.986Z,6.93
2023-01-18T05:26:17.292Z,5.63
2023-01-18T05:28:44.665Z,5.43
2023-01-18T05:31:11.811Z,5.82
2023-01-18T05:33:38.663Z,6.10
2023-01-18T05:36:05.961Z,7.85
2023-01-18T05:38:32.746Z,6.30
2023-01-18T05:40:59.519Z,6.97
2023-01-18T05:43:27.682Z,6.70
2023-01-18T05:45:54.728Z,7.50
2023-01-18T05:48:21.918Z,6.75
2023-01-18T05:50:49.100Z,7.68
2023-01-18T05:53:20.710Z,6.38
2023-01-18T05:55:58.518Z,5.97
2023-01-18T05:58:26.010Z,6.07
2023-01-18T06:00:53.073Z,6.43
2023-01-18T06:03:20.207Z,6.45
2023-01-18T06:05:48.137Z,6.82
2023-01-18T06:08:15.612Z,6.00
2023-01-18T06:10:42.366Z,6.88
2023-01-18T06:13:09.359Z,6.75
2023-01-18T06:15:36.565Z,6.65
2023-01-18T06:18:03.308Z,6.72
2023-01-18T06:20:30.529Z,6.25
2023-01-18T06:22:58.448Z,7.00
2023-01-18T06:25:25.793Z,6.90
2023-01-18T06:27:52.562Z,7.60
2023-01-18T06:30:19.685Z,7.65
2023-01-18T06:32:48.421Z,9.25
2023-01-18T06:35:15.358Z,8.70
2023-01-18T06:37:42.171Z,9.38
2023-01-18T06:40:09.584Z,8.90
2023-01-18T06:42:36.418Z,8.73
2023-01-18T06:45:03.550Z,9.18
2023-01-18T06:47:30.301Z,10.00
2023-01-18T06:49:57.078Z,10.23
2023-01-18T06:52:23.832Z,10.30
2023-01-18T06:54:50.569Z,11.25
2023-01-18T06:57:17.348Z,11.20
2023-01-18T06:59:44.070Z,11.02
2023-01-18T07:02:14.793Z,10.43
2023-01-18T07:04:44.165Z,8.25
2023-01-18T07:07:11.624Z,8.60
2023-01-18T07:09:38.355Z,9.07
2023-01-18T07:12:05.369Z,8.25
2023-01-18T07:14:32.104Z,7.90
2023-01-18T07:16:58.812Z,8.20
2023-01-18T07:19:25.627Z,6.82
2023-01-18T07:21:53.761Z,7.63
2023-01-18T07:24:20.566Z,9.07
2023-01-18T07:26:47.396Z,8.88
2023-01-18T07:29:14.239Z,8.15
2023-01-18T07:31:41.088Z,8.32
2023-01-18T07:34:09.314Z,7.22
2023-01-18T07:36:38.584Z,8.07
2023-01-18T07:39:06.507Z,7.07
2023-01-18T07:41:33.385Z,7.38
2023-01-18T07:44:00.899Z,7.75
2023-01-18T07:46:28.016Z,7.85
2023-01-18T07:48:54.840Z,7.07
2023-01-18T07:51:24.803Z,7.63
2023-01-18T07:53:55.269Z,7.72
2023-01-18T07:56:23.637Z,8.95
2023-01-18T07:58:50.511Z,8.48
2023-01-18T08:01:19.345Z,8.30
2023-01-18T08:03:47.916Z,8.50
2023-01-18T08:06:18.514Z,7.88
2023-01-18T08:08:45.758Z,7.82
2023-01-18T08:11:12.688Z,8.73
2023-01-18T08:13:39.521Z,8.65
2023-01-18T08:16:08.210Z,7.97
2023-01-18T08:18:35.283Z,7.32
2023-01-18T08:21:02.111Z,7.15
2023-01-18T08:23:29.310Z,7.68
2023-01-18T08:25:59.945Z,8.30
2023-01-18T08:28:26.730Z,9.43
2023-01-18T08:30:53.518Z,12.90
2023-01-18T08:33:20.271Z,9.02
2023-01-18T08:35:47.993Z,7.15
2023-01-18T08:38:15.980Z,8.02
2023-01-18T08:40:43.063Z,7.93
2023-01-18T08:43:11.704Z,8.23
2023-01-18T08:45:38.447Z,7.28
2023-01-18T08:48:07.629Z,7.72
2023-01-18T08:50:35.130Z,7.20
2023-01-18T08:53:02.816Z,6.55
2023-01-18T08:55:30.406Z,6.28
2023-01-18T08:57:57.943Z,6.65
2023-01-18T09:00:28.352Z,6.18
2023-01-18T09:02:55.352Z,5.93
2023-01-18T09:05:22.885Z,6.68
2023-01-18T09:07:50.803Z,6.65
2023-01-18T09:10:17.779Z,5.55
2023-01-18T09:12:44.559Z,6.32
2023-01-18T09:15:11.347Z,9.50
2023-01-18T09:17:38.153Z,7.10
2023-01-18T09:20:09.958Z,5.60
2023-01-18T09:22:37.551Z,5.95
2023-01-18T09:25:05.868Z,6.03
2023-01-18T09:27:33.031Z,5.35
2023-01-18T09:30:00.176Z,5.60
2023-01-18T09:32:27.485Z,6.18
2023-01-18T09:34:54.901Z,5.25
2023-01-18T09:37:22.066Z,6.47
2023-01-18T09:39:52.759Z,5.10
2023-01-18T09:42:25.500Z,4.55
2023-01-18T09:44:55.729Z,4.03
2023-01-18T09:47:24.594Z,4.70
2023-01-18T09:49:59.936Z,4.85
2023-01-18T09:52:32.848Z,4.60
2023-01-18T09:55:28.776Z,3.63
2023-01-18T09:58:01.509Z,5.18
2023-01-18T10:00:31.281Z,4.60
2023-01-18T10:03:08.453Z,4.18
2023-01-18T10:05:37.922Z,4.38
2023-01-18T10:08:17.465Z,3.80
2023-01-18T10:10:56.248Z,4.88
2023-01-18T10:13:59.300Z,4.30
2023-01-18T10:16:26.277Z,4.00
2023-01-18T10:18:57.229Z,4.43
2023-01-18T10:22:03.949Z,3.70
2023-01-18T10:24:52.286Z,3.30
2023-01-18T10:27:40.431Z,3.15
2023-01-18T10:30:28.852Z,3.80
2023-01-18T10:33:03.035Z,3.55
2023-01-18T10:35:37.072Z,3.47
2023-01-18T10:38:09.873Z,3.60
2023-01-18T10:40:37.834Z,2.90
2023-01-18T10:43:10.259Z,3.15
2023-01-18T10:45:37.236Z,2.75
2023-01-18T10:48:34.017Z,3.20
2023-01-18T10:51:04.098Z,3.53
2023-01-18T10:53:33.628Z,2.90
2023-01-18T10:56:13.132Z,3.25
2023-01-18T10:58:42.716Z,3.10
2023-01-18T11:01:34.648Z,3.03
2023-01-18T11:04:07.555Z,2.80
2023-01-18T11:06:53.441Z,3.45
2023-01-18T11:09:42.924Z,4.25
2023-01-18T11:12:33.954Z,4.15
2023-01-18T11:15:16.046Z,3.67
2023-01-18T11:18:00.565Z,3.80
2023-01-18T11:20:47.797Z,3.22
2023-01-18T11:23:19.122Z,4.65
2023-01-18T11:26:19.380Z,4.45
2023-01-18T11:31:18.675Z,3.28
2023-01-18T11:33:53.959Z,3.28
2023-01-18T11:36:33.771Z,3.13
2023-01-18T11:39:22.467Z,3.13
2023-01-18T11:41:49.828Z,3.40
2023-01-18T11:44:23.782Z,3.72
2023-01-18T11:46:53.806Z,3.20
2023-01-18T11:49:31.411Z,3.00
2023-01-18T11:52:05.151Z,3.45
2023-01-18T11:54:48.491Z,2.80
2023-01-18T11:57:15.680Z,2.75
2023-01-18T11:59:46.661Z,3.45
2023-01-18T12:02:39.093Z,2.70
2023-01-18T12:05:27.066Z,4.60
2023-01-18T12:07:57.176Z,3.20
2023-01-18T12:10:26.331Z,3.45
2023-01-18T12:13:05.040Z,3.03
2023-01-18T12:15:49.942Z,2.85
2023-01-18T12:18:37.690Z,4.28
2023-01-18T12:21:12.138Z,3.28
2023-01-18T12:23:48.159Z,2.60
2023-01-18T12:26:21.050Z,3.50
2023-01-18T12:29:12.475Z,3.22
2023-01-18T12:31:51.775Z,4.20
2023-01-18T12:34:23.535Z,2.93
2023-01-18T12:37:07.124Z,2.85
2023-01-18T12:39:53.930Z,3.10
2023-01-18T12:43:01.911Z,3.67
2023-01-18T12:45:39.402Z,2.95
2023-01-18T12:48:21.395Z,4.32
2023-01-18T12:50:49.797Z,3.47
2023-01-18T12:53:28.609Z,2.90
2023-01-18T12:55:55.652Z,2.90
2023-01-18T12:58:25.037Z,2.88
2023-01-18T13:00:59.297Z,2.72
2023-01-18T13:03:30.185Z,4.78
2023-01-18T13:06:01.964Z,3.63
2023-01-18T13:08:52.418Z,3.38
2023-01-18T13:11:24.229Z,3.63
2023-01-18T13:14:02.997Z,3.88
2023-01-18T13:16:51.051Z,4.47
2023-01-18T13:19:24.641Z,4.57
2023-01-18T13:22:22.750Z,4.13
2023-01-18T13:24:55.671Z,3.58
2023-01-18T13:27:22.912Z,3.90
2023-01-18T13:29:49.781Z,4.65
2023-01-18T13:32:34.226Z,5.30
2023-01-18T13:35:19.591Z,4.15
2023-01-18T13:37:56.476Z,4.63
2023-01-18T13:40:52.653Z,3.65
2023-01-18T13:43:37.918Z,3.20
2023-01-18T13:46:07.743Z,3.17
2023-01-18T13:48:55.303Z,3.47
2023-01-18T13:51:40.308Z,4.68
2023-01-18T13:54:11.395Z,4.07
2023-01-18T13:56:39.521Z,4.68
2023-01-18T13:59:12.525Z,3.67
2023-01-18T14:01:43.778Z,3.17
2023-01-18T14:04:26.782Z,2.60
2023-01-18T14:06:55.123Z,3.35
2023-01-18T14:09:38.220Z,2.78
2023-01-18T14:12:06.074Z,2.75
2023-01-18T14:14:35.686Z,3.63
2023-01-18T14:17:18.354Z,5.00
2023-01-18T14:19:48.169Z,4.93
2023-01-18T14:23:07.257Z,5.65
2023-01-18T14:25:54.752Z,20.05
2023-01-18T14:28:48.682Z,7.38
2023-01-18T14:31:20.273Z,12.30
2023-01-18T14:33:47.121Z,5.35
2023-01-18T14:36:25.739Z,7.32
2023-01-18T14:39:16.266Z,4.38
2023-01-18T14:41:45.264Z,3.97
2023-01-18T14:44:33.774Z,4.88
2023-01-18T14:47:08.177Z,4.70
2023-01-18T14:49:46.755Z,7.72
2023-01-18T14:52:18.606Z,4.45
2023-01-18T14:54:55.607Z,6.28
2023-01-18T14:57:23.897Z,3.80
2023-01-18T14:59:57.037Z,3.13
2023-01-18T15:02:29.293Z,3.08
2023-01-18T15:05:17.050Z,4.53
2023-01-18T15:07:50.043Z,5.13
2023-01-18T15:10:18.681Z,4.80
2023-01-18T15:12:49.618Z,3.35
2023-01-18T15:15:22.633Z,3.72
2023-01-18T15:17:50.109Z,3.63
2023-01-18T15:20:17.186Z,5.55
2023-01-18T15:22:44.302Z,5.57
2023-01-18T15:25:26.943Z,5.38
2023-01-18T15:27:54.064Z,5.15
2023-01-18T15:30:23.259Z,4.57
2023-01-18T15:32:54.279Z,4.70
2023-01-18T15:35:23.942Z,4.80
2023-01-18T15:37:50.775Z,5.03
2023-01-18T15:40:17.457Z,7.20
2023-01-18T15:42:56.773Z,7.20
2023-01-18T15:45:50.056Z,7.40
2023-01-18T15:48:22.749Z,6.43
2023-01-18T15:50:55.168Z,7.88
2023-01-18T15:53:27.969Z,7.15
2023-01-18T15:56:01.784Z,7.85
2023-01-18T15:58:49.985Z,8.00
2023-01-18T16:01:28.166Z,7.82
2023-01-18T16:03:58.631Z,7.05
2023-01-18T16:06:25.943Z,7.10
2023-01-18T16:09:02.225Z,6.72
2023-01-18T16:11:56.943Z,6.82
2023-01-18T16:14:27.674Z,7.03
2023-01-18T16:17:11.195Z,8.25
2023-01-18T16:19:48.679Z,8.40
2023-01-18T16:22:26.859Z,11.88
2023-01-18T16:25:07.875Z,13.98
2023-01-18T16:27:45.636Z,12.70
2023-01-18T16:30:27.513Z,13.95
2023-01-18T16:32:54.413Z,11.65
2023-01-18T16:35:22.730Z,12.38
2023-01-18T16:37:52.784Z,12.48
2023-01-18T16:40:24.015Z,16.65
2023-01-18T16:43:04.809Z,21.55
2023-01-18T16:45:35.468Z,18.42
2023-01-18T16:48:03.012Z,24.90
2023-01-18T16:50:30.055Z,39.38
2023-01-18T16:53:00.181Z,33.10
2023-01-18T16:57:54.244Z,20.58
2023-01-18T17:00:30.770Z,20.70
2023-01-18T17:03:00.763Z,15.60
2023-01-18T17:05:30.004Z,14.93
2023-01-18T17:08:03.057Z,14.00
2023-01-18T17:10:35.758Z,14.02
2023-01-18T17:13:03.085Z,14.90
2023-01-18T17:15:32.450Z,14.48
2023-01-18T17:17:59.224Z,12.32
2023-01-18T17:20:27.182Z,16.08
2023-01-18T17:22:54.793Z,17.05
2023-01-18T17:25:22.822Z,15.60
2023-01-18T17:27:50.622Z,15.07
2023-01-18T17:30:21.164Z,15.70
2023-01-18T17:32:48.411Z,14.43
2023-01-18T17:35:17.186Z,15.63
2023-01-18T17:37:44.000Z,20.40
2023-01-18T17:40:19.659Z,23.88
2023-01-18T17:42:51.797Z,24.45
2023-01-18T17:45:18.788Z,25.42
2023-01-18T17:47:45.871Z,23.52
2023-01-18T17:50:15.482Z,21.85
2023-01-18T17:52:42.340Z,20.08
2023-01-18T17:55:13.112Z,16.98
2023-01-18T17:57:40.907Z,19.60
2023-01-18T18:00:13.821Z,23.15
2023-01-18T18:02:42.230Z,24.05
2023-01-18T18:05:09.778Z,21.98
2023-01-18T18:07:37.018Z,22.77
2023-01-18T18:10:05.418Z,23.40
2023-01-18T18:12:33.957Z,21.65
2023-01-18T18:15:01.623Z,20.63
2023-01-18T18:17:34.128Z,18.77
2023-01-18T18:20:01.269Z,19.33
2023-01-18T18:22:28.495Z,21.15
2023-01-18T18:24:56.500Z,21.73
2023-01-18T18:27:26.638Z,22.50
2023-01-18T18:29:57.935Z,24.85
2023-01-18T18:32:24.917Z,39.08
2023-01-18T18:34:51.744Z,44.17
2023-01-18T18:37:19.863Z,40.67
2023-01-18T18:39:47.590Z,38.28
2023-01-18T18:42:14.677Z,32.42
2023-01-18T18:44:41.535Z,30.30
2023-01-18T18:47:10.053Z,24.50
2023-01-18T18:49:37.065Z,20.13
2023-01-18T18:52:04.087Z,19.25
2023-01-18T18:54:31.102Z,9.23
2023-01-18T18:56:58.010Z,9.30
2023-01-18T18:59:24.890Z,10.57
2023-01-18T19:01:52.266Z,10.38
2023-01-18T19:04:19.233Z,8.98
2023-01-18T19:06:46.239Z,9.00
2023-01-18T19:09:13.272Z,10.13
2023-01-18T19:11:50.422Z,13.85
2023-01-18T19:14:21.423Z,16.50
2023-01-18T19:16:48.280Z,15.48
2023-01-18T19:19:15.182Z,22.55
2023-01-18T19:21:42.251Z,23.83
2023-01-18T19:24:09.039Z,19.33
2023-01-18T19:26:35.886Z,16.92
2023-01-18T19:29:03.006Z,15.10
2023-01-18T19:31:30.365Z,14.40
2023-01-18T19:33:58.582Z,11.55
2023-01-18T19:36:25.499Z,11.10
2023-01-18T19:38:59.270Z,10.82
2023-01-18T19:41:27.678Z,12.43
2023-01-18T19:43:54.497Z,13.65
2023-01-18T19:46:21.352Z,13.45
2023-01-18T19:48:48.362Z,12.38
2023-01-18T19:51:22.394Z,13.60
2023-01-18T19:53:54.414Z,11.25
2023-01-18T19:56:22.053Z,12.10
2023-01-18T19:58:50.401Z,14.20
2023-01-18T20:01:34.659Z,11.48
2023-01-18T20:04:03.130Z,13.88
2023-01-18T20:06:30.827Z,14.30
2023-01-18T20:08:57.677Z,13.60
2023-01-18T20:11:24.848Z,14.10
2023-01-18T20:13:51.808Z,15.60
2023-01-18T20:16:22.420Z,13.50
2023-01-18T20:18:55.128Z,14.98
2023-01-18T20:21:22.053Z,17.00
2023-01-18T20:23:49.219Z,16.33
2023-01-18T20:26:34.933Z,15.57
2023-01-18T20:29:06.300Z,13.52
2023-01-18T20:31:37.568Z,10.55
2023-01-18T20:34:05.262Z,10.50
2023-01-18T20:36:34.737Z,10.98
2023-01-18T20:39:02.285Z,10.57
2023-01-18T20:41:29.393Z,10.55
2023-01-18T20:43:56.357Z,11.48
2023-01-18T20:46:23.231Z,12.73
2023-01-18T20:48:50.121Z,11.40
2023-01-18T20:51:18.002Z,12.88
2023-01-18T20:53:45.030Z,13.60
2023-01-18T20:56:27.897Z,14.68
2023-01-18T20:58:56.008Z,15.65
2023-01-18T21:01:22.994Z,16.05
2023-01-18T21:03:54.238Z,14.30
2023-01-18T21:06:21.147Z,11.93
2023-01-18T21:08:47.952Z,12.48
2023-01-18T21:11:18.506Z,11.18
2023-01-18T21:13:45.342Z,11.18
2023-01-18T21:16:12.579Z,12.00
2023-01-18T21:18:39.417Z,10.32
2023-01-18T21:21:07.333Z,9.63
2023-01-18T21:23:39.786Z,9.88
2023-01-18T21:26:09.220Z,10.52
2023-01-18T21:28:36.359Z,10.90
2023-01-18T21:31:03.343Z,11.43
2023-01-18T21:33:30.175Z,10.02
2023-01-18T21:36:21.241Z,11.48
2023-01-18T21:38:48.245Z,11.40
2023-01-18T21:41:34.065Z,10.32
2023-01-18T21:44:19.365Z,12.10
2023-01-18T21:46:53.092Z,10.18
2023-01-18T21:52:44.028Z,10.13
2023-01-18T21:55:10.958Z,11.02
2023-01-18T21:57:38.671Z,10.02
2023-01-18T22:05:42.231Z,11.68
2023-01-18T22:08:09.894Z,11.75
2023-01-18T22:10:37.045Z,11.65
2023-01-18T22:13:04.196Z,12.70
2023-01-18T22:15:31.269Z,12.88
2023-01-18T22:17:59.018Z,11.20
2023-01-18T22:20:26.211Z,12.68
2023-01-18T22:22:54.356Z,13.32
2023-01-18T22:25:21.451Z,13.45
2023-01-18T22:27:48.792Z,12.80
